Time;durP1;ratioP1;P1;durP2;ratioP2;P2;SDS_P1;SDS_P2;PMS_P1;PMS_P2;Temp;Humidity;BMP_temperature;BMP_pressure;BME280_temperature;BME280_humidity;BME280_pressure;Samples;Min_cycle;Max_cycle;Signal;HPM_P1;HPM_P2
2023/10/25 00:01:07;;;;;;;0.20;0.20;;;;;;;;;;5015246;28;19975;-76
2023/10/25 00:03:53;;;;;;;0.20;0.20;;;;;;;;;;5013427;28;20029;-75
2023/10/25 00:06:39;;;;;;;0.20;0.20;;;;;;;;;;5016071;28;20043;-76
2023/10/25 00:09:24;;;;;;;0.20;0.20;;;;;;;;;;5011738;28;20064;-75
2023/10/25 00:12:10;;;;;;;0.20;0.20;;;;;;;;;;5015435;28;20040;-76
2023/10/25 00:14:56;;;;;;;0.20;0.20;;;;;;;;;;5013918;28;20128;-75
2023/10/25 00:17:41;;;;;;;0.20;0.20;;;;;;;;;;5013601;28;20892;-76
2023/10/25 00:20:27;;;;;;;0.10;0.10;;;;;;;;;;5000773;28;20120;-76
2023/10/25 00:23:13;;;;;;;0.15;0.15;;;;;;;;;;5016180;28;20050;-76
2023/10/25 00:25:58;;;;;;;0.10;0.10;;;;;;;;;;5013737;28;20799;-76
2023/10/25 00:28:44;;;;;;;0.10;0.10;;;;;;;;;;5012590;28;20048;-76
2023/10/25 00:31:30;;;;;;;0.10;0.10;;;;;;;;;;5015139;28;20439;-76
2023/10/25 00:34:15;;;;;;;0.10;0.10;;;;;;;;;;5013538;28;20079;-76
2023/10/25 00:37:01;;;;;;;0.10;0.10;;;;;;;;;;5015019;28;20095;-75
2023/10/25 00:39:48;;;;;;;0.10;0.10;;;;;;;;;;5011601;28;20041;-74
2023/10/25 00:42:34;;;;;;;0.10;0.10;;;;;;;;;;4999841;28;20677;-75
2023/10/25 00:45:19;;;;;;;0.10;0.10;;;;;;;;;;5014353;28;20042;-75
2023/10/25 00:48:05;;;;;;;0.10;0.10;;;;;;;;;;5002158;28;20065;-76
2023/10/25 00:50:51;;;;;;;0.10;0.10;;;;;;;;;;5012585;28;20033;-77
2023/10/25 00:53:38;;;;;;;0.10;0.10;;;;;;;;;;5001655;28;20064;-76
2023/10/25 00:56:24;;;;;;;0.10;0.10;;;;;;;;;;5012180;28;20056;-76
2023/10/25 00:59:10;;;;;;;0.10;0.10;;;;;;;;;;5012443;28;20041;-77
2023/10/25 01:01:56;;;;;;;0.10;0.10;;;;;;;;;;4999063;28;20968;-76
2023/10/25 01:04:42;;;;;;;0.13;0.13;;;;;;;;;;5014357;28;20026;-76
2023/10/25 01:07:28;;;;;;;0.10;0.10;;;;;;;;;;5003462;28;20126;-77
2023/10/25 01:10:13;;;;;;;0.10;0.10;;;;;;;;;;5012242;28;20029;-77
2023/10/25 01:13:00;;;;;;;0.20;0.20;;;;;;;;;;4996309;28;20706;-76
2023/10/25 01:15:46;;;;;;;0.10;0.10;;;;;;;;;;4996900;28;20102;-75
2023/10/25 01:18:32;;;;;;;0.10;0.10;;;;;;;;;;5013268;28;20831;-74
2023/10/25 01:21:18;;;;;;;0.20;0.20;;;;;;;;;;4998403;28;20040;-75
2023/10/25 01:24:03;;;;;;;0.10;0.10;;;;;;;;;;4996779;28;20938;-74
2023/10/25 01:26:51;;;;;;;0.20;0.20;;;;;;;;;;5008325;28;20033;-75
2023/10/25 01:29:36;;;;;;;0.10;0.10;;;;;;;;;;4998446;28;20040;-76
2023/10/25 01:32:22;;;;;;;0.10;0.10;;;;;;;;;;5014357;28;20089;-76
2023/10/25 01:35:08;;;;;;;0.10;0.10;;;;;;;;;;5012058;28;20034;-76
2023/10/25 01:37:54;;;;;;;0.13;0.13;;;;;;;;;;5011632;28;20455;-75
2023/10/25 01:40:40;;;;;;;0.20;0.20;;;;;;;;;;5012408;28;20037;-76
2023/10/25 01:43:25;;;;;;;0.20;0.20;;;;;;;;;;4998624;28;20037;-75
2023/10/25 01:46:11;;;;;;;0.10;0.10;;;;;;;;;;4999410;28;20169;-74
2023/10/25 01:48:59;;;;;;;0.10;0.10;;;;;;;;;;5012081;28;20584;-75
2023/10/25 01:51:45;;;;;;;0.10;0.10;;;;;;;;;;5012277;28;20037;-76
2023/10/25 01:54:30;;;;;;;0.10;0.10;;;;;;;;;;5012379;28;20037;-76
2023/10/25 01:57:17;;;;;;;0.20;0.20;;;;;;;;;;5012864;28;20037;-75
2023/10/25 02:00:03;;;;;;;0.20;0.20;;;;;;;;;;4997874;28;20045;-76
2023/10/25 02:02:58;;;;;;;0.75;0.50;;;;;;;;;;5012780;28;20400;-75
2023/10/25 02:05:43;;;;;;;0.82;0.43;;;;;;;;;;4985842;28;20115;-76
2023/10/25 02:08:29;;;;;;;0.40;0.30;;;;;;;;;;5012441;28;20293;-75
2023/10/25 02:11:20;;;;;;;0.20;0.20;;;;;;;;;;5012822;28;20088;-75
2023/10/25 02:14:06;;;;;;;0.30;0.30;;;;;;;;;;4999258;28;20120;-76
2023/10/25 02:16:51;;;;;;;0.45;0.30;;;;;;;;;;5013121;28;20033;-74
2023/10/25 02:19:39;;;;;;;0.85;0.47;;;;;;;;;;5009569;28;20045;-75
2023/10/25 02:22:25;;;;;;;0.10;0.10;;;;;;;;;;4999155;28;20532;-74
2023/10/25 02:25:11;;;;;;;0.20;0.20;;;;;;;;;;5011214;28;20036;-75
2023/10/25 02:27:57;;;;;;;0.35;0.25;;;;;;;;;;5011947;28;20703;-75
2023/10/25 02:30:42;;;;;;;0.43;0.30;;;;;;;;;;4999393;28;20123;-76
2023/10/25 02:33:28;;;;;;;0.35;0.30;;;;;;;;;;5011900;28;21105;-76
2023/10/25 02:36:14;;;;;;;0.57;0.40;;;;;;;;;;5011266;28;20041;-75
2023/10/25 02:39:01;;;;;;;0.30;0.20;;;;;;;;;;5011699;28;20041;-77
2023/10/25 02:41:46;;;;;;;0.52;0.35;;;;;;;;;;5012611;28;20033;-77
2023/10/25 02:44:33;;;;;;;0.22;0.20;;;;;;;;;;4997854;28;20682;-76
2023/10/25 02:47:19;;;;;;;0.35;0.25;;;;;;;;;;5013469;28;20908;-77
2023/10/25 02:50:05;;;;;;;0.40;0.30;;;;;;;;;;5009876;28;20075;-77
2023/10/25 02:52:51;;;;;;;0.43;0.30;;;;;;;;;;5011867;28;20057;-76
2023/10/25 02:55:36;;;;;;;0.20;0.20;;;;;;;;;;5000058;28;20459;-77
2023/10/25 02:58:22;;;;;;;0.75;0.50;;;;;;;;;;5011885;28;20037;-76
2023/10/25 03:01:08;;;;;;;0.40;0.30;;;;;;;;;;4996770;28;20037;-76
2023/10/25 03:03:53;;;;;;;0.90;0.50;;;;;;;;;;4995939;28;20042;-77
2023/10/25 03:06:39;;;;;;;0.38;0.30;;;;;;;;;;4999700;28;20041;-77
2023/10/25 03:09:25;;;;;;;0.20;0.20;;;;;;;;;;5010580;28;20041;-77
2023/10/25 03:12:11;;;;;;;0.45;0.30;;;;;;;;;;4997138;28;20064;-77
2023/10/25 03:14:56;;;;;;;0.65;0.40;;;;;;;;;;5010917;28;20034;-77
2023/10/25 03:17:42;;;;;;;0.50;0.38;;;;;;;;;;5008188;28;20156;-76
2023/10/25 03:20:28;;;;;;;0.82;0.45;;;;;;;;;;5010658;28;20750;-77
2023/10/25 03:23:14;;;;;;;0.57;0.40;;;;;;;;;;4993363;28;20056;-76
2023/10/25 03:26:04;;;;;;;0.20;0.20;;;;;;;;;;4998267;28;20045;-76
2023/10/25 03:28:50;;;;;;;0.57;0.32;;;;;;;;;;5009978;28;20389;-77
2023/10/25 03:31:38;;;;;;;0.60;0.40;;;;;;;;;;4998189;28;20125;-76
2023/10/25 03:34:24;;;;;;;0.35;0.20;;;;;;;;;;5009040;28;20038;-76
2023/10/25 03:37:10;;;;;;;0.28;0.22;;;;;;;;;;5012406;28;20107;-76
2023/10/25 03:39:56;;;;;;;0.20;0.20;;;;;;;;;;4996329;28;20547;-76
2023/10/25 03:42:42;;;;;;;0.10;0.10;;;;;;;;;;5010663;28;20025;-76
2023/10/25 03:45:27;;;;;;;0.20;0.20;;;;;;;;;;5010061;28;20673;-76
2023/10/25 03:48:13;;;;;;;0.20;0.20;;;;;;;;;;5010959;28;20045;-76
2023/10/25 03:50:59;;;;;;;0.20;0.20;;;;;;;;;;5010363;28;20553;-77
2023/10/25 03:53:44;;;;;;;0.20;0.20;;;;;;;;;;5009897;28;20091;-76
2023/10/25 03:56:30;;;;;;;0.47;0.30;;;;;;;;;;5012517;28;20037;-76
2023/10/25 03:59:16;;;;;;;0.40;0.30;;;;;;;;;;5011178;28;20041;-76
2023/10/25 04:02:01;;;;;;;0.30;0.30;;;;;;;;;;5012560;28;20148;-77
2023/10/25 04:04:47;;;;;;;0.30;0.30;;;;;;;;;;5011702;28;20030;-76
2023/10/25 04:07:33;;;;;;;0.80;0.40;;;;;;;;;;5015253;28;20127;-77
2023/10/25 04:10:19;;;;;;;0.20;0.20;;;;;;;;;;5011787;28;20048;-76
2023/10/25 04:13:05;;;;;;;0.10;0.10;;;;;;;;;;5012428;28;20112;-77
2023/10/25 04:15:58;;;;;;;0.17;0.17;;;;;;;;;;5014592;28;20095;-77
2023/10/25 04:18:43;;;;;;;0.10;0.10;;;;;;;;;;5016093;28;20080;-76
2023/10/25 04:21:29;;;;;;;0.20;0.20;;;;;;;;;;5017134;28;20149;-77
2023/10/25 04:24:16;;;;;;;0.25;0.25;;;;;;;;;;5016585;28;20154;-77
2023/10/25 04:27:02;;;;;;;0.35;0.30;;;;;;;;;;5018553;28;20021;-77
2023/10/25 04:29:47;;;;;;;0.40;0.30;;;;;;;;;;5014710;28;20041;-77
2023/10/25 04:32:33;;;;;;;0.20;0.20;;;;;;;;;;5015369;28;20057;-77
2023/10/25 04:35:19;;;;;;;0.30;0.30;;;;;;;;;;5015499;28;20033;-77
2023/10/25 04:38:05;;;;;;;0.45;0.30;;;;;;;;;;5014819;28;20042;-76
2023/10/25 04:40:51;;;;;;;0.20;0.20;;;;;;;;;;5014470;28;20056;-76
2023/10/25 04:43:36;;;;;;;0.20;0.20;;;;;;;;;;5014303;28;20064;-77
2023/10/25 04:46:22;;;;;;;0.20;0.20;;;;;;;;;;5017202;28;20750;-76
2023/10/25 04:49:08;;;;;;;0.38;0.35;;;;;;;;;;5016203;28;20033;-76
2023/10/25 04:51:54;;;;;;;0.38;0.30;;;;;;;;;;5016150;28;20133;-77
2023/10/25 04:54:42;;;;;;;0.20;0.20;;;;;;;;;;5016589;28;20041;-77
2023/10/25 04:57:27;;;;;;;0.10;0.10;;;;;;;;;;5017536;28;20759;-77
2023/10/25 05:00:13;;;;;;;0.10;0.10;;;;;;;;;;5013053;28;20095;-76
2023/10/25 05:02:59;;;;;;;0.28;0.20;;;;;;;;;;5001172;28;20053;-77
2023/10/25 05:05:46;;;;;;;0.20;0.20;;;;;;;;;;5015353;28;20069;-76
2023/10/25 05:08:32;;;;;;;0.20;0.20;;;;;;;;;;5014942;28;20109;-76
2023/10/25 05:11:18;;;;;;;0.82;0.50;;;;;;;;;;5017124;28;20723;-77
2023/10/25 05:14:04;;;;;;;0.40;0.30;;;;;;;;;;5014176;28;20037;-77
2023/10/25 05:16:50;;;;;;;0.25;0.20;;;;;;;;;;5014922;28;20036;-77
2023/10/25 05:19:36;;;;;;;0.30;0.30;;;;;;;;;;5016177;28;20563;-77
2023/10/25 05:22:23;;;;;;;0.85;0.50;;;;;;;;;;5003253;28;20072;-77
2023/10/25 05:25:10;;;;;;;0.28;0.25;;;;;;;;;;4998799;28;20025;-77
2023/10/25 05:27:56;;;;;;;0.47;0.35;;;;;;;;;;5014365;28;20037;-77
2023/10/25 05:30:42;;;;;;;0.30;0.20;;;;;;;;;;5008873;28;20040;-77
2023/10/25 05:33:29;;;;;;;0.55;0.35;;;;;;;;;;5013988;28;20056;-77
2023/10/25 05:36:15;;;;;;;0.57;0.38;;;;;;;;;;5014061;28;20040;-76
2023/10/25 05:39:03;;;;;;;0.30;0.20;;;;;;;;;;5013821;28;20065;-77
2023/10/25 05:41:50;;;;;;;0.63;0.40;;;;;;;;;;5016467;28;20104;-77
2023/10/25 05:44:35;;;;;;;0.20;0.20;;;;;;;;;;5014732;28;20111;-77
2023/10/25 05:47:22;;;;;;;0.40;0.30;;;;;;;;;;5012797;28;20045;-77
2023/10/25 05:50:10;;;;;;;0.20;0.20;;;;;;;;;;5014120;28;20040;-77
2023/10/25 05:52:56;;;;;;;0.20;0.20;;;;;;;;;;5016507;28;21278;-77
2023/10/25 05:55:41;;;;;;;0.28;0.25;;;;;;;;;;5013281;28;20048;-76
2023/10/25 05:58:27;;;;;;;0.65;0.40;;;;;;;;;;5014184;28;20104;-77
2023/10/25 06:01:14;;;;;;;0.52;0.38;;;;;;;;;;4999043;28;20052;-77
2023/10/25 06:04:00;;;;;;;0.85;0.50;;;;;;;;;;5012427;28;20041;-77
2023/10/25 06:06:46;;;;;;;0.43;0.40;;;;;;;;;;5014633;28;20380;-77
2023/10/25 06:09:32;;;;;;;0.57;0.40;;;;;;;;;;5013111;28;20104;-77
2023/10/25 06:12:18;;;;;;;0.75;0.50;;;;;;;;;;5015989;28;20110;-77
2023/10/25 06:15:04;;;;;;;0.47;0.38;;;;;;;;;;5011167;28;20128;-76
2023/10/25 06:17:51;;;;;;;1.05;0.65;;;;;;;;;;5013712;28;20034;-77
2023/10/25 06:20:37;;;;;;;0.80;0.50;;;;;;;;;;5012713;28;20116;-77
2023/10/25 06:23:23;;;;;;;0.90;0.52;;;;;;;;;;5013104;28;20045;-76
2023/10/25 06:26:08;;;;;;;0.55;0.40;;;;;;;;;;5012534;28;20092;-77
2023/10/25 06:28:54;;;;;;;0.35;0.28;;;;;;;;;;5012155;28;20041;-77
2023/10/25 06:31:40;;;;;;;0.73;0.47;;;;;;;;;;5012120;28;20042;-76
2023/10/25 06:34:25;;;;;;;0.32;0.30;;;;;;;;;;5013044;28;20122;-76
2023/10/25 06:37:11;;;;;;;0.43;0.30;;;;;;;;;;5012151;28;20038;-77
2023/10/25 06:39:57;;;;;;;0.70;0.40;;;;;;;;;;5012934;28;20045;-77
2023/10/25 06:42:43;;;;;;;0.63;0.40;;;;;;;;;;5013765;28;20033;-77
2023/10/25 06:45:29;;;;;;;0.22;0.22;;;;;;;;;;4997683;28;20034;-77
2023/10/25 06:48:14;;;;;;;0.77;0.40;;;;;;;;;;4999607;28;20932;-77
2023/10/25 06:51:02;;;;;;;0.25;0.25;;;;;;;;;;5012694;28;20108;-77
2023/10/25 06:53:49;;;;;;;0.30;0.30;;;;;;;;;;5011312;28;20095;-77
2023/10/25 06:56:34;;;;;;;0.25;0.25;;;;;;;;;;5013047;28;20045;-77
2023/10/25 06:59:20;;;;;;;0.40;0.30;;;;;;;;;;5011769;28;20037;-77
2023/10/25 07:02:18;;;;;;;0.17;0.17;;;;;;;;;;5012546;28;20083;-77
2023/10/25 07:05:13;;;;;;;0.17;0.17;;;;;;;;;;5011972;28;20038;-77
2023/10/25 07:07:59;;;;;;;0.22;0.20;;;;;;;;;;5012672;28;20049;-77
2023/10/25 07:10:44;;;;;;;0.30;0.30;;;;;;;;;;5013362;28;20081;-77
2023/10/25 07:13:30;;;;;;;0.25;0.20;;;;;;;;;;5012224;28;20398;-77
2023/10/25 07:16:16;;;;;;;0.20;0.20;;;;;;;;;;5013993;28;20546;-76
2023/10/25 07:19:02;;;;;;;0.20;0.20;;;;;;;;;;5012082;28;20128;-78
2023/10/25 07:21:48;;;;;;;0.20;0.20;;;;;;;;;;4993478;28;20057;-78
2023/10/25 07:24:34;;;;;;;0.20;0.20;;;;;;;;;;5010718;28;20099;-78
2023/10/25 07:27:19;;;;;;;0.22;0.20;;;;;;;;;;5012988;28;20037;-78
2023/10/25 07:30:05;;;;;;;0.13;0.13;;;;;;;;;;5010110;28;20040;-78
2023/10/25 07:32:51;;;;;;;0.15;0.15;;;;;;;;;;5012548;28;20038;-78
2023/10/25 07:35:37;;;;;;;0.10;0.10;;;;;;;;;;5013430;28;20535;-78
2023/10/25 07:38:23;;;;;;;0.20;0.20;;;;;;;;;;5014825;28;20051;-78
2023/10/25 07:41:08;;;;;;;0.20;0.20;;;;;;;;;;5011867;28;20672;-77
2023/10/25 07:43:54;;;;;;;0.10;0.10;;;;;;;;;;4978028;28;20115;-78
2023/10/25 07:46:40;;;;;;;0.20;0.20;;;;;;;;;;5013197;28;20042;-78
2023/10/25 07:49:26;;;;;;;0.10;0.10;;;;;;;;;;5011735;28;20025;-79
2023/10/25 07:52:12;;;;;;;0.13;0.13;;;;;;;;;;5016341;28;20049;-79
2023/10/25 07:54:57;;;;;;;0.20;0.20;;;;;;;;;;5015450;28;20064;-78
2023/10/25 07:57:43;;;;;;;0.20;0.20;;;;;;;;;;5019376;28;20080;-79
2023/10/25 08:00:29;;;;;;;0.20;0.20;;;;;;;;;;5013720;28;20033;-78
2023/10/25 08:03:17;;;;;;;0.20;0.20;;;;;;;;;;5017284;28;20056;-78
2023/10/25 08:06:02;;;;;;;0.10;0.10;;;;;;;;;;5003445;28;20060;-78
2023/10/25 08:08:49;;;;;;;0.10;0.10;;;;;;;;;;5002645;28;20548;-78
2023/10/25 08:11:36;;;;;;;0.15;0.15;;;;;;;;;;5017483;28;20217;-78
2023/10/25 08:14:22;;;;;;;0.10;0.10;;;;;;;;;;5013455;28;20030;-78
2023/10/25 08:17:08;;;;;;;0.10;0.10;;;;;;;;;;5017572;28;20119;-78
2023/10/25 08:19:53;;;;;;;0.10;0.10;;;;;;;;;;5015051;28;20076;-78
2023/10/25 08:22:39;;;;;;;0.10;0.10;;;;;;;;;;5016896;28;20569;-78
2023/10/25 08:25:26;;;;;;;0.10;0.10;;;;;;;;;;5015301;28;20033;-78
2023/10/25 08:28:12;;;;;;;0.10;0.10;;;;;;;;;;5012419;28;20834;-78
2023/10/25 08:30:57;;;;;;;0.20;0.20;;;;;;;;;;5010666;28;20037;-77
2023/10/25 08:33:43;;;;;;;0.10;0.10;;;;;;;;;;5013800;28;20748;-77
2023/10/25 08:36:30;;;;;;;0.17;0.17;;;;;;;;;;5014981;28;20022;-77
2023/10/25 08:39:21;;;;;;;0.10;0.10;;;;;;;;;;5011147;28;20436;-77
2023/10/25 08:42:09;;;;;;;0.20;0.20;;;;;;;;;;5013600;28;20034;-77
2023/10/25 08:44:55;;;;;;;0.20;0.20;;;;;;;;;;5011875;28;20127;-77
2023/10/25 08:47:41;;;;;;;0.20;0.20;;;;;;;;;;5014552;28;20041;-77
2023/10/25 08:50:27;;;;;;;0.20;0.20;;;;;;;;;;5011273;28;20029;-77
2023/10/25 08:53:13;;;;;;;0.20;0.20;;;;;;;;;;5014695;28;20080;-77
2023/10/25 08:55:59;;;;;;;0.30;0.25;;;;;;;;;;5014575;28;21037;-77
2023/10/25 08:58:44;;;;;;;0.20;0.20;;;;;;;;;;5012329;28;20084;-77
2023/10/25 09:01:30;;;;;;;0.17;0.17;;;;;;;;;;5015585;28;20069;-76
2023/10/25 09:04:16;;;;;;;0.10;0.10;;;;;;;;;;5014169;28;20033;-77
2023/10/25 09:07:02;;;;;;;0.10;0.10;;;;;;;;;;5014507;28;20025;-77
2023/10/25 09:09:48;;;;;;;0.10;0.10;;;;;;;;;;5013529;28;20096;-76
2023/10/25 09:12:34;;;;;;;0.10;0.10;;;;;;;;;;5017453;28;20025;-77
2023/10/25 09:15:29;;;;;;;0.10;0.10;;;;;;;;;;5013955;28;20492;-76
2023/10/25 09:18:14;;;;;;;0.17;0.17;;;;;;;;;;5014279;28;20041;-76
2023/10/25 09:21:01;;;;;;;0.10;0.10;;;;;;;;;;5015706;28;20616;-77
2023/10/25 09:23:54;;;;;;;0.13;0.13;;;;;;;;;;4991556;28;20041;-76
2023/10/25 09:26:40;;;;;;;0.10;0.10;;;;;;;;;;4996528;28;20034;-77
2023/10/25 09:29:26;;;;;;;0.10;0.10;;;;;;;;;;4994958;28;20226;-77
2023/10/25 09:32:12;;;;;;;0.20;0.20;;;;;;;;;;4995368;28;20092;-77
2023/10/25 09:34:58;;;;;;;0.10;0.10;;;;;;;;;;4992192;28;20076;-78
2023/10/25 09:37:43;;;;;;;0.10;0.10;;;;;;;;;;4996093;28;20038;-78
2023/10/25 09:40:29;;;;;;;0.10;0.10;;;;;;;;;;4995038;28;20061;-78
2023/10/25 09:43:17;;;;;;;0.20;0.20;;;;;;;;;;4953101;28;20148;-77
2023/10/25 09:46:07;;;;;;;0.15;0.15;;;;;;;;;;4993198;28;20053;-78
2023/10/25 09:48:54;;;;;;;0.20;0.20;;;;;;;;;;4993057;28;20068;-78
2023/10/25 09:51:40;;;;;;;0.10;0.10;;;;;;;;;;4995580;28;20033;-78
2023/10/25 09:54:31;;;;;;;0.10;0.10;;;;;;;;;;4990941;28;20034;-78
2023/10/25 09:57:21;;;;;;;0.10;0.10;;;;;;;;;;4995146;28;20097;-78
2023/10/25 10:00:08;;;;;;;0.10;0.10;;;;;;;;;;4993091;28;20048;-78
2023/10/25 10:03:00;;;;;;;0.20;0.20;;;;;;;;;;4995084;28;20034;-78
2023/10/25 10:06:00;;;;;;;0.10;0.10;;;;;;;;;;4993977;28;20042;-78
2023/10/25 10:08:51;;;;;;;0.10;0.10;;;;;;;;;;4994144;28;20045;-78
2023/10/25 10:11:37;;;;;;;;;;;;;;;;;;4993883;28;20038;-78
2023/10/25 10:14:30;;;;;;;0.20;0.20;;;;;;;;;;4993044;28;19913;-77
2023/10/25 10:17:18;;;;;;;0.13;0.13;;;;;;;;;;4994316;28;20164;-78
2023/10/25 10:20:05;;;;;;;0.15;0.15;;;;;;;;;;4992389;28;20162;-78
2023/10/25 10:23:00;;;;;;;0.10;0.10;;;;;;;;;;4994745;28;20509;-78
2023/10/25 10:25:46;;;;;;;0.10;0.10;;;;;;;;;;4994855;28;20046;-78
2023/10/25 10:28:36;;;;;;;0.10;0.10;;;;;;;;;;4993733;28;20523;-78
2023/10/25 10:31:22;;;;;;;0.17;0.17;;;;;;;;;;4973275;28;20050;-78
2023/10/25 10:34:07;;;;;;;0.10;0.10;;;;;;;;;;4989405;28;20124;-78
2023/10/25 10:37:04;;;;;;;0.20;0.20;;;;;;;;;;4992609;28;20123;-78
2023/10/25 10:39:56;;;;;;;0.10;0.10;;;;;;;;;;4990816;28;20370;-78
2023/10/25 10:42:42;;;;;;;0.20;0.20;;;;;;;;;;4989135;28;20713;-77
2023/10/25 10:45:29;;;;;;;0.20;0.20;;;;;;;;;;4961020;28;20081;-78
2023/10/25 10:48:21;;;;;;;0.10;0.10;;;;;;;;;;4983413;28;20129;-77
2023/10/25 10:51:07;;;;;;;0.20;0.20;;;;;;;;;;4990633;28;20097;-78
2023/10/25 10:53:53;;;;;;;0.10;0.10;;;;;;;;;;4990927;28;20065;-78
2023/10/25 10:56:39;;;;;;;0.20;0.20;;;;;;;;;;4993773;28;20037;-78
2023/10/25 10:59:28;;;;;;;0.10;0.10;;;;;;;;;;4994091;28;20054;-78
2023/10/25 11:02:14;;;;;;;0.10;0.10;;;;;;;;;;4992998;28;20112;-78
2023/10/25 11:04:59;;;;;;;0.20;0.20;;;;;;;;;;4991332;28;20050;-78
2023/10/25 11:07:48;;;;;;;0.10;0.10;;;;;;;;;;4993316;28;20157;-78
2023/10/25 11:10:35;;;;;;;0.10;0.10;;;;;;;;;;4991789;28;20037;-78
2023/10/25 11:13:21;;;;;;;0.10;0.10;;;;;;;;;;4992297;28;20034;-78
2023/10/25 11:16:08;;;;;;;0.10;0.10;;;;;;;;;;4994249;28;20030;-78
2023/10/25 11:19:04;;;;;;;0.10;0.10;;;;;;;;;;4988962;28;20034;-78
2023/10/25 11:21:50;;;;;;;0.10;0.10;;;;;;;;;;4985499;28;20057;-78
2023/10/25 11:24:36;;;;;;;0.10;0.10;;;;;;;;;;5012394;28;20072;-78
2023/10/25 11:27:21;;;;;;;0.10;0.10;;;;;;;;;;5018937;28;20037;-78
2023/10/25 11:30:07;;;;;;;0.10;0.10;;;;;;;;;;5016238;28;20077;-77
2023/10/25 11:32:54;;;;;;;0.20;0.20;;;;;;;;;;5018255;28;20053;-78
2023/10/25 11:35:43;;;;;;;0.10;0.10;;;;;;;;;;5018493;28;20071;-77
2023/10/25 11:38:28;;;;;;;0.10;0.10;;;;;;;;;;5019775;28;20053;-78
2023/10/25 11:41:14;;;;;;;0.10;0.10;;;;;;;;;;5015906;28;20053;-78
2023/10/25 11:44:00;;;;;;;0.20;0.20;;;;;;;;;;4994965;28;20053;-78
2023/10/25 11:46:51;;;;;;;0.10;0.10;;;;;;;;;;5014085;28;20121;-78
2023/10/25 11:49:37;;;;;;;0.10;0.10;;;;;;;;;;5015261;28;20045;-78
2023/10/25 11:52:23;;;;;;;0.10;0.10;;;;;;;;;;5019231;28;20037;-78
2023/10/25 11:55:09;;;;;;;0.20;0.20;;;;;;;;;;5012566;28;20605;-79
2023/10/25 11:57:55;;;;;;;0.10;0.10;;;;;;;;;;5015097;28;20045;-77
2023/10/25 12:00:41;;;;;;;0.17;0.17;;;;;;;;;;5012774;28;20192;-77
2023/10/25 12:03:27;;;;;;;0.10;0.10;;;;;;;;;;5016010;28;20152;-78
2023/10/25 12:06:13;;;;;;;0.20;0.20;;;;;;;;;;5016278;28;20029;-77
2023/10/25 12:08:59;;;;;;;0.10;0.10;;;;;;;;;;5014895;28;20049;-77
2023/10/25 12:11:45;;;;;;;0.10;0.10;;;;;;;;;;5017304;28;20057;-77
2023/10/25 12:14:30;;;;;;;0.10;0.10;;;;;;;;;;5016442;28;20037;-78
2023/10/25 12:17:16;;;;;;;0.10;0.10;;;;;;;;;;5017121;28;20033;-77
2023/10/25 12:20:02;;;;;;;0.10;0.10;;;;;;;;;;5014623;28;20025;-77
2023/10/25 12:22:48;;;;;;;0.10;0.10;;;;;;;;;;5018456;28;20049;-77
2023/10/25 12:25:37;;;;;;;0.10;0.10;;;;;;;;;;5015859;28;20041;-77
2023/10/25 12:28:23;;;;;;;0.10;0.10;;;;;;;;;;5014755;28;20033;-77
2023/10/25 12:31:09;;;;;;;0.10;0.10;;;;;;;;;;4999523;28;20517;-76
2023/10/25 12:33:55;;;;;;;0.10;0.10;;;;;;;;;;4998359;28;20681;-76
2023/10/25 12:36:40;;;;;;;0.20;0.20;;;;;;;;;;5013421;28;20048;-76
2023/10/25 12:39:26;;;;;;;0.10;0.10;;;;;;;;;;5011120;28;20041;-77
2023/10/25 12:42:12;;;;;;;0.10;0.10;;;;;;;;;;5014622;28;20164;-76
2023/10/25 12:44:58;;;;;;;0.10;0.10;;;;;;;;;;5011260;28;20510;-76
2023/10/25 12:47:43;;;;;;;0.10;0.10;;;;;;;;;;5015373;28;21458;-77
2023/10/25 12:50:29;;;;;;;0.10;0.10;;;;;;;;;;5009355;28;20076;-76
2023/10/25 12:53:17;;;;;;;0.10;0.10;;;;;;;;;;5013507;28;20037;-77
2023/10/25 12:56:03;;;;;;;0.20;0.20;;;;;;;;;;5014787;28;20058;-76
2023/10/25 12:58:49;;;;;;;0.10;0.10;;;;;;;;;;5014649;28;20049;-77
2023/10/25 13:01:34;;;;;;;0.10;0.10;;;;;;;;;;5002252;28;20664;-77
2023/10/25 13:04:20;;;;;;;0.20;0.20;;;;;;;;;;4998842;28;20420;-77
2023/10/25 13:07:06;;;;;;;0.17;0.17;;;;;;;;;;5000972;28;20743;-77
2023/10/25 13:09:52;;;;;;;0.10;0.10;;;;;;;;;;4997917;28;20045;-76
2023/10/25 13:12:38;;;;;;;0.10;0.10;;;;;;;;;;4968743;28;20481;-78
2023/10/25 13:15:23;;;;;;;0.10;0.10;;;;;;;;;;5012372;28;20414;-76
2023/10/25 13:18:09;;;;;;;0.10;0.10;;;;;;;;;;5011080;28;20033;-78
2023/10/25 13:20:55;;;;;;;0.20;0.20;;;;;;;;;;5009388;28;20041;-78
2023/10/25 13:23:40;;;;;;;0.10;0.10;;;;;;;;;;4994653;28;20053;-79
2023/10/25 13:26:26;;;;;;;0.20;0.20;;;;;;;;;;4992849;28;20034;-78
2023/10/25 13:29:12;;;;;;;0.10;0.10;;;;;;;;;;4992994;28;20037;-79
2023/10/25 13:32:03;;;;;;;0.10;0.10;;;;;;;;;;4993888;28;20065;-77
2023/10/25 13:34:49;;;;;;;0.10;0.10;;;;;;;;;;4993976;28;20215;-76
2023/10/25 13:37:35;;;;;;;0.10;0.10;;;;;;;;;;4995173;28;20048;-78
2023/10/25 13:40:22;;;;;;;0.10;0.10;;;;;;;;;;4993065;28;20041;-78
2023/10/25 13:43:08;;;;;;;0.10;0.10;;;;;;;;;;4991770;28;20138;-77
2023/10/25 13:45:54;;;;;;;0.10;0.10;;;;;;;;;;4990455;28;20478;-78
2023/10/25 13:48:41;;;;;;;0.13;0.13;;;;;;;;;;4993545;28;20046;-78
2023/10/25 13:51:27;;;;;;;0.10;0.10;;;;;;;;;;4995853;28;20026;-78
2023/10/25 13:54:12;;;;;;;0.20;0.20;;;;;;;;;;4992511;28;20939;-78
2023/10/25 13:56:58;;;;;;;0.10;0.10;;;;;;;;;;4992025;28;20030;-78
2023/10/25 13:59:44;;;;;;;0.10;0.10;;;;;;;;;;4986393;28;20902;-78
2023/10/25 14:02:30;;;;;;;0.10;0.10;;;;;;;;;;4993809;28;20150;-78
2023/10/25 14:05:15;;;;;;;0.10;0.10;;;;;;;;;;4991051;28;20176;-78
2023/10/25 14:08:01;;;;;;;0.10;0.10;;;;;;;;;;4995293;28;20034;-78
2023/10/25 14:10:47;;;;;;;0.10;0.10;;;;;;;;;;4991472;28;20040;-78
2023/10/25 14:13:33;;;;;;;0.10;0.10;;;;;;;;;;4965708;28;20046;-78
2023/10/25 14:16:19;;;;;;;0.10;0.10;;;;;;;;;;4992059;28;20044;-78
2023/10/25 14:19:06;;;;;;;0.10;0.10;;;;;;;;;;4990884;28;20504;-78
2023/10/25 14:21:52;;;;;;;0.20;0.20;;;;;;;;;;4994678;28;20617;-78
2023/10/25 14:24:37;;;;;;;0.10;0.10;;;;;;;;;;5011341;28;20048;-78
2023/10/25 14:27:23;;;;;;;0.20;0.20;;;;;;;;;;4999050;28;20033;-78
2023/10/25 14:30:09;;;;;;;0.10;0.10;;;;;;;;;;5009901;28;20041;-78
2023/10/25 14:32:55;;;;;;;0.10;0.10;;;;;;;;;;5011889;28;20033;-78
2023/10/25 14:35:46;;;;;;;0.20;0.20;;;;;;;;;;4880406;28;20036;-76
2023/10/25 14:38:35;;;;;;;0.10;0.10;;;;;;;;;;4924700;28;20164;-78
2023/10/25 14:41:21;;;;;;;0.10;0.10;;;;;;;;;;5013731;28;20029;-77
2023/10/25 14:44:08;;;;;;;0.10;0.10;;;;;;;;;;4941600;28;20334;-77
2023/10/25 14:46:54;;;;;;;0.17;0.17;;;;;;;;;;4892228;28;20037;-77
2023/10/25 14:49:39;;;;;;;0.10;0.10;;;;;;;;;;5010609;28;20044;-77
2023/10/25 14:52:25;;;;;;;0.10;0.10;;;;;;;;;;5014572;28;20032;-77
2023/10/25 14:55:12;;;;;;;0.10;0.10;;;;;;;;;;5010562;28;20033;-77
2023/10/25 14:57:57;;;;;;;0.10;0.10;;;;;;;;;;5014067;28;20046;-76
2023/10/25 15:00:43;;;;;;;0.20;0.20;;;;;;;;;;4811329;28;20518;-77
2023/10/25 15:03:29;;;;;;;0.10;0.10;;;;;;;;;;4968770;28;20621;-77
2023/10/25 15:06:17;;;;;;;0.10;0.10;;;;;;;;;;5011867;28;20040;-77
2023/10/25 15:09:02;;;;;;;0.10;0.10;;;;;;;;;;5010094;28;20037;-77
2023/10/25 15:11:48;;;;;;;0.10;0.10;;;;;;;;;;4985503;28;20038;-78
2023/10/25 15:14:38;;;;;;;0.10;0.10;;;;;;;;;;4851670;28;20959;-77
2023/10/25 15:17:24;;;;;;;0.10;0.10;;;;;;;;;;4852307;28;20124;-76
2023/10/25 15:20:10;;;;;;;0.10;0.10;;;;;;;;;;4819999;28;20038;-76
2023/10/25 15:22:56;;;;;;;0.10;0.10;;;;;;;;;;4894068;28;20140;-77
2023/10/25 15:25:42;;;;;;;0.10;0.10;;;;;;;;;;4940872;28;20464;-77
2023/10/25 15:28:28;;;;;;;0.10;0.10;;;;;;;;;;4956836;28;20077;-77
2023/10/25 15:31:18;;;;;;;0.20;0.20;;;;;;;;;;4976712;28;20030;-77
2023/10/25 15:34:04;;;;;;;0.20;0.20;;;;;;;;;;4975417;28;20042;-76
2023/10/25 15:36:50;;;;;;;0.10;0.10;;;;;;;;;;4936678;28;20778;-77
2023/10/25 15:39:37;;;;;;;0.10;0.10;;;;;;;;;;4833258;28;20791;-77
2023/10/25 15:42:22;;;;;;;0.10;0.10;;;;;;;;;;4903839;28;21033;-76
2023/10/25 15:45:12;;;;;;;0.10;0.10;;;;;;;;;;4836491;28;20230;-76
2023/10/25 15:48:01;;;;;;;0.17;0.17;;;;;;;;;;4778755;28;20026;-76
2023/10/25 15:50:55;;;;;;;0.10;0.10;;;;;;;;;;4811800;28;20431;-77
2023/10/25 15:53:41;;;;;;;0.10;0.10;;;;;;;;;;4767087;28;20040;-76
2023/10/25 15:56:28;;;;;;;0.10;0.10;;;;;;;;;;4826527;28;20747;-77
2023/10/25 15:59:14;;;;;;;0.10;0.10;;;;;;;;;;4830458;28;20049;-77
2023/10/25 16:02:00;;;;;;;0.17;0.17;;;;;;;;;;4761331;28;20386;-77
2023/10/25 16:04:46;;;;;;;0.10;0.10;;;;;;;;;;4818721;28;20059;-76
2023/10/25 16:07:32;;;;;;;0.10;0.10;;;;;;;;;;4763758;28;20327;-76
2023/10/25 16:10:18;;;;;;;0.10;0.10;;;;;;;;;;4808763;28;20271;-76
2023/10/25 16:13:04;;;;;;;0.10;0.10;;;;;;;;;;4849764;28;20266;-77
2023/10/25 16:15:59;;;;;;;0.10;0.10;;;;;;;;;;4776514;28;20037;-77
2023/10/25 16:18:49;;;;;;;0.10;0.10;;;;;;;;;;4787270;28;20196;-76
2023/10/25 16:21:37;;;;;;;0.10;0.10;;;;;;;;;;4832630;28;20413;-76
2023/10/25 16:24:23;;;;;;;0.10;0.10;;;;;;;;;;4968668;28;20505;-76
2023/10/25 16:27:09;;;;;;;0.10;0.10;;;;;;;;;;5013163;28;20060;-77
2023/10/25 16:29:55;;;;;;;0.10;0.10;;;;;;;;;;5013196;28;20645;-77
2023/10/25 16:32:40;;;;;;;0.10;0.10;;;;;;;;;;5016568;28;20130;-77
2023/10/25 16:35:26;;;;;;;0.10;0.10;;;;;;;;;;5016276;28;20635;-77
2023/10/25 16:38:13;;;;;;;0.10;0.10;;;;;;;;;;5014993;28;20037;-76